sensor_id;sensor_type;location;lat;lon;timestamp;P1;durP1;ratioP1;P2;durP2;ratioP2
36061;SDS011;22123;52.412;20.970;2022-09-13T00:00:35;49.50;;;22.92;;
36061;SDS011;22123;52.412;20.970;2022-09-13T00:03:01;41.20;;;21.95;;
36061;SDS011;22123;52.412;20.970;2022-09-13T00:05:27;40.08;;;22.85;;
36061;SDS011;22123;52.412;20.970;2022-09-13T00:07:52;43.58;;;22.88;;
36061;SDS011;22123;52.412;20.970;2022-09-13T00:10:18;40.28;;;22.45;;
36061;SDS011;22123;52.412;20.970;2022-09-13T00:12:44;37.83;;;20.70;;
36061;SDS011;22123;52.412;20.970;2022-09-13T00:15:11;42.60;;;22.27;;
36061;SDS011;22123;52.412;20.970;2022-09-13T00:17:36;41.13;;;23.90;;
36061;SDS011;22123;52.412;20.970;2022-09-13T00:20:02;43.35;;;24.42;;
36061;SDS011;22123;52.412;20.970;2022-09-13T00:22:28;45.42;;;25.30;;
36061;SDS011;22123;52.412;20.970;2022-09-13T00:24:53;40.53;;;21.52;;
36061;SDS011;22123;52.412;20.970;2022-09-13T00:27:19;42.90;;;23.33;;
36061;SDS011;22123;52.412;20.970;2022-09-13T00:29:44;40.15;;;23.02;;
36061;SDS011;22123;52.412;20.970;2022-09-13T00:32:10;43.38;;;23.17;;
36061;SDS011;22123;52.412;20.970;2022-09-13T00:34:35;40.58;;;21.98;;
36061;SDS011;22123;52.412;20.970;2022-09-13T00:37:01;51.70;;;25.38;;
36061;SDS011;22123;52.412;20.970;2022-09-13T00:39:26;54.65;;;25.38;;
36061;SDS011;22123;52.412;20.970;2022-09-13T00:41:51;61.00;;;25.13;;
36061;SDS011;22123;52.412;20.970;2022-09-13T00:47:24;70.88;;;26.83;;
36061;SDS011;22123;52.412;20.970;2022-09-13T00:49:57;55.85;;;27.30;;
36061;SDS011;22123;52.412;20.970;2022-09-13T00:52:46;49.72;;;27.45;;
36061;SDS011;22123;52.412;20.970;2022-09-13T00:55:22;75.55;;;29.42;;
36061;SDS011;22123;52.412;20.970;2022-09-13T00:57:51;67.22;;;30.42;;
36061;SDS011;22123;52.412;20.970;2022-09-13T01:00:21;61.90;;;27.80;;
36061;SDS011;22123;52.412;20.970;2022-09-13T01:02:51;71.68;;;30.50;;
36061;SDS011;22123;52.412;20.970;2022-09-13T01:05:22;82.03;;;31.77;;
36061;SDS011;22123;52.412;20.970;2022-09-13T01:10:17;67.63;;;29.02;;
36061;SDS011;22123;52.412;20.970;2022-09-13T01:12:48;47.00;;;26.23;;
36061;SDS011;22123;52.412;20.970;2022-09-13T01:15:20;64.45;;;27.90;;
36061;SDS011;22123;52.412;20.970;2022-09-13T01:17:46;60.30;;;27.45;;
36061;SDS011;22123;52.412;20.970;2022-09-13T01:20:12;55.25;;;26.30;;
36061;SDS011;22123;52.412;20.970;2022-09-13T01:22:50;58.08;;;28.88;;
36061;SDS011;22123;52.412;20.970;2022-09-13T01:25:36;57.15;;;27.92;;
36061;SDS011;22123;52.412;20.970;2022-09-13T01:30:42;49.28;;;27.80;;
36061;SDS011;22123;52.412;20.970;2022-09-13T01:36:28;67.82;;;29.70;;
36061;SDS011;22123;52.412;20.970;2022-09-13T01:39:04;67.57;;;29.95;;
36061;SDS011;22123;52.412;20.970;2022-09-13T01:47:26;46.08;;;27.17;;
36061;SDS011;22123;52.412;20.970;2022-09-13T01:50:38;66.78;;;26.05;;
36061;SDS011;22123;52.412;20.970;2022-09-13T01:55:58;57.45;;;25.25;;
36061;SDS011;22123;52.412;20.970;2022-09-13T01:58:43;64.78;;;25.77;;
36061;SDS011;22123;52.412;20.970;2022-09-13T02:01:27;55.03;;;24.35;;
36061;SDS011;22123;52.412;20.970;2022-09-13T02:03:59;61.33;;;26.48;;
36061;SDS011;22123;52.412;20.970;2022-09-13T02:06:33;49.22;;;25.92;;
36061;SDS011;22123;52.412;20.970;2022-09-13T02:09:13;53.90;;;27.55;;
36061;SDS011;22123;52.412;20.970;2022-09-13T02:11:43;54.45;;;27.02;;
36061;SDS011;22123;52.412;20.970;2022-09-13T02:14:17;52.53;;;22.65;;
36061;SDS011;22123;52.412;20.970;2022-09-13T02:16:48;56.58;;;25.70;;
36061;SDS011;22123;52.412;20.970;2022-09-13T02:19:30;55.35;;;26.40;;
36061;SDS011;22123;52.412;20.970;2022-09-13T02:22:00;54.25;;;27.73;;
36061;SDS011;22123;52.412;20.970;2022-09-13T02:24:30;41.42;;;22.73;;
36061;SDS011;22123;52.412;20.970;2022-09-13T02:26:58;69.82;;;26.70;;
36061;SDS011;22123;52.412;20.970;2022-09-13T02:29:30;57.75;;;26.17;;
36061;SDS011;22123;52.412;20.970;2022-09-13T02:34:24;50.83;;;24.35;;
36061;SDS011;22123;52.412;20.970;2022-09-13T02:36:56;47.95;;;23.58;;
36061;SDS011;22123;52.412;20.970;2022-09-13T02:39:24;37.10;;;20.85;;
36061;SDS011;22123;52.412;20.970;2022-09-13T02:44:39;40.55;;;22.63;;
36061;SDS011;22123;52.412;20.970;2022-09-13T02:50:09;49.10;;;25.17;;
36061;SDS011;22123;52.412;20.970;2022-09-13T02:58:13;35.17;;;20.50;;
36061;SDS011;22123;52.412;20.970;2022-09-13T03:00:45;36.22;;;23.10;;
36061;SDS011;22123;52.412;20.970;2022-09-13T03:03:11;44.90;;;20.88;;
36061;SDS011;22123;52.412;20.970;2022-09-13T03:05:39;42.13;;;21.95;;
36061;SDS011;22123;52.412;20.970;2022-09-13T03:08:06;41.83;;;23.83;;
36061;SDS011;22123;52.412;20.970;2022-09-13T03:10:43;40.25;;;23.63;;
36061;SDS011;22123;52.412;20.970;2022-09-13T03:16:33;44.58;;;21.90;;
36061;SDS011;22123;52.412;20.970;2022-09-13T03:21:46;42.63;;;21.77;;
36061;SDS011;22123;52.412;20.970;2022-09-13T03:30:10;33.63;;;19.73;;
36061;SDS011;22123;52.412;20.970;2022-09-13T03:32:47;40.55;;;21.48;;
36061;SDS011;22123;52.412;20.970;2022-09-13T03:35:28;30.23;;;19.05;;
36061;SDS011;22123;52.412;20.970;2022-09-13T03:38:06;45.17;;;20.58;;
36061;SDS011;22123;52.412;20.970;2022-09-13T03:40:42;38.53;;;20.75;;
36061;SDS011;22123;52.412;20.970;2022-09-13T03:45:59;43.17;;;21.63;;
36061;SDS011;22123;52.412;20.970;2022-09-13T03:48:29;43.17;;;22.52;;
36061;SDS011;22123;52.412;20.970;2022-09-13T03:51:03;38.45;;;20.75;;
36061;SDS011;22123;52.412;20.970;2022-09-13T03:53:30;36.63;;;20.75;;
36061;SDS011;22123;52.412;20.970;2022-09-13T03:55:58;36.78;;;19.48;;
36061;SDS011;22123;52.412;20.970;2022-09-13T03:58:24;44.55;;;20.10;;
36061;SDS011;22123;52.412;20.970;2022-09-13T04:00:50;33.42;;;20.33;;
36061;SDS011;22123;52.412;20.970;2022-09-13T04:03:17;39.70;;;19.88;;
36061;SDS011;22123;52.412;20.970;2022-09-13T04:05:43;33.00;;;20.75;;
36061;SDS011;22123;52.412;20.970;2022-09-13T04:08:08;36.50;;;20.73;;
36061;SDS011;22123;52.412;20.970;2022-09-13T04:10:34;34.65;;;19.92;;
36061;SDS011;22123;52.412;20.970;2022-09-13T04:13:00;31.40;;;20.92;;
36061;SDS011;22123;52.412;20.970;2022-09-13T04:15:26;44.65;;;21.42;;
36061;SDS011;22123;52.412;20.970;2022-09-13T04:17:52;36.17;;;21.50;;
36061;SDS011;22123;52.412;20.970;2022-09-13T04:20:18;37.95;;;21.13;;
36061;SDS011;22123;52.412;20.970;2022-09-13T04:22:49;34.00;;;21.65;;
36061;SDS011;22123;52.412;20.970;2022-09-13T04:25:16;33.28;;;19.30;;
36061;SDS011;22123;52.412;20.970;2022-09-13T04:27:43;35.72;;;20.60;;
36061;SDS011;22123;52.412;20.970;2022-09-13T04:30:08;35.08;;;19.40;;
36061;SDS011;22123;52.412;20.970;2022-09-13T04:32:35;41.50;;;21.60;;
36061;SDS011;22123;52.412;20.970;2022-09-13T04:35:00;42.25;;;20.67;;
36061;SDS011;22123;52.412;20.970;2022-09-13T04:37:26;40.80;;;22.38;;
36061;SDS011;22123;52.412;20.970;2022-09-13T04:39:51;39.65;;;22.75;;
36061;SDS011;22123;52.412;20.970;2022-09-13T04:42:17;41.38;;;23.25;;
36061;SDS011;22123;52.412;20.970;2022-09-13T04:44:43;45.33;;;21.85;;
36061;SDS011;22123;52.412;20.970;2022-09-13T04:47:09;72.22;;;26.48;;
36061;SDS011;22123;52.412;20.970;2022-09-13T04:49:34;49.15;;;23.65;;
36061;SDS011;22123;52.412;20.970;2022-09-13T04:51:59;59.13;;;26.40;;
36061;SDS011;22123;52.412;20.970;2022-09-13T04:54:25;47.45;;;25.13;;
36061;SDS011;22123;52.412;20.970;2022-09-13T04:56:51;48.63;;;25.88;;
36061;SDS011;22123;52.412;20.970;2022-09-13T04:59:18;41.53;;;22.33;;
36061;SDS011;22123;52.412;20.970;2022-09-13T05:01:44;65.90;;;23.30;;
36061;SDS011;22123;52.412;20.970;2022-09-13T05:04:09;55.35;;;24.52;;
36061;SDS011;22123;52.412;20.970;2022-09-13T05:06:35;43.85;;;23.35;;
36061;SDS011;22123;52.412;20.970;2022-09-13T05:09:00;48.67;;;24.77;;
36061;SDS011;22123;52.412;20.970;2022-09-13T05:11:27;62.60;;;21.13;;
36061;SDS011;22123;52.412;20.970;2022-09-13T05:13:55;111.30;;;22.50;;
36061;SDS011;22123;52.412;20.970;2022-09-13T05:16:22;56.10;;;20.00;;
36061;SDS011;22123;52.412;20.970;2022-09-13T05:18:49;74.93;;;21.73;;
36061;SDS011;22123;52.412;20.970;2022-09-13T05:21:15;76.10;;;23.08;;
36061;SDS011;22123;52.412;20.970;2022-09-13T05:23:41;65.80;;;24.10;;
36061;SDS011;22123;52.412;20.970;2022-09-13T05:26:06;94.93;;;22.63;;
36061;SDS011;22123;52.412;20.970;2022-09-13T05:28:32;79.15;;;22.05;;
36061;SDS011;22123;52.412;20.970;2022-09-13T05:31:00;91.78;;;23.45;;
36061;SDS011;22123;52.412;20.970;2022-09-13T05:33:31;118.68;;;23.75;;
36061;SDS011;22123;52.412;20.970;2022-09-13T05:35:58;77.03;;;22.88;;
36061;SDS011;22123;52.412;20.970;2022-09-13T05:38:24;105.68;;;22.92;;
36061;SDS011;22123;52.412;20.970;2022-09-13T05:40:56;155.63;;;23.00;;
36061;SDS011;22123;52.412;20.970;2022-09-13T05:43:23;46.03;;;20.05;;
36061;SDS011;22123;52.412;20.970;2022-09-13T05:45:50;95.65;;;20.55;;
36061;SDS011;22123;52.412;20.970;2022-09-13T05:48:16;51.45;;;20.35;;
36061;SDS011;22123;52.412;20.970;2022-09-13T05:50:41;67.18;;;22.05;;
36061;SDS011;22123;52.412;20.970;2022-09-13T05:53:07;77.55;;;21.05;;
36061;SDS011;22123;52.412;20.970;2022-09-13T05:55:33;50.33;;;20.08;;
36061;SDS011;22123;52.412;20.970;2022-09-13T05:58:02;27.85;;;20.67;;
36061;SDS011;22123;52.412;20.970;2022-09-13T06:00:28;36.17;;;21.60;;
36061;SDS011;22123;52.412;20.970;2022-09-13T06:02:54;76.00;;;25.13;;
36061;SDS011;22123;52.412;20.970;2022-09-13T06:05:20;67.15;;;22.23;;
36061;SDS011;22123;52.412;20.970;2022-09-13T06:07:45;26.55;;;21.08;;
36061;SDS011;22123;52.412;20.970;2022-09-13T06:10:11;54.05;;;21.35;;
36061;SDS011;22123;52.412;20.970;2022-09-13T06:12:36;33.22;;;20.80;;
36061;SDS011;22123;52.412;20.970;2022-09-13T06:15:02;30.65;;;21.98;;
36061;SDS011;22123;52.412;20.970;2022-09-13T06:17:28;45.75;;;22.52;;
36061;SDS011;22123;52.412;20.970;2022-09-13T06:19:53;45.35;;;21.75;;
36061;SDS011;22123;52.412;20.970;2022-09-13T06:22:18;27.80;;;21.45;;
36061;SDS011;22123;52.412;20.970;2022-09-13T06:24:44;92.85;;;24.52;;
36061;SDS011;22123;52.412;20.970;2022-09-13T06:27:09;39.10;;;23.83;;
36061;SDS011;22123;52.412;20.970;2022-09-13T06:29:35;73.53;;;25.73;;
36061;SDS011;22123;52.412;20.970;2022-09-13T06:32:01;94.85;;;24.90;;
36061;SDS011;22123;52.412;20.970;2022-09-13T06:34:28;117.40;;;26.80;;
36061;SDS011;22123;52.412;20.970;2022-09-13T06:36:53;43.08;;;24.52;;
36061;SDS011;22123;52.412;20.970;2022-09-13T06:39:18;78.15;;;26.85;;
36061;SDS011;22123;52.412;20.970;2022-09-13T06:41:44;40.05;;;25.08;;
36061;SDS011;22123;52.412;20.970;2022-09-13T06:44:09;72.95;;;27.70;;
36061;SDS011;22123;52.412;20.970;2022-09-13T06:46:35;75.38;;;25.42;;
36061;SDS011;22123;52.412;20.970;2022-09-13T06:49:02;39.70;;;24.50;;
36061;SDS011;22123;52.412;20.970;2022-09-13T06:51:28;40.55;;;24.77;;
36061;SDS011;22123;52.412;20.970;2022-09-13T06:53:55;73.40;;;24.88;;
36061;SDS011;22123;52.412;20.970;2022-09-13T06:56:38;44.22;;;24.80;;
36061;SDS011;22123;52.412;20.970;2022-09-13T06:59:05;46.75;;;28.83;;
36061;SDS011;22123;52.412;20.970;2022-09-13T07:01:36;61.78;;;27.02;;
36061;SDS011;22123;52.412;20.970;2022-09-13T07:04:07;91.43;;;31.77;;
36061;SDS011;22123;52.412;20.970;2022-09-13T07:06:35;71.70;;;32.83;;
36061;SDS011;22123;52.412;20.970;2022-09-13T07:09:02;72.97;;;37.03;;
36061;SDS011;22123;52.412;20.970;2022-09-13T07:11:31;59.08;;;31.83;;
36061;SDS011;22123;52.412;20.970;2022-09-13T07:13:58;54.50;;;30.40;;
36061;SDS011;22123;52.412;20.970;2022-09-13T07:16:31;34.53;;;25.00;;
36061;SDS011;22123;52.412;20.970;2022-09-13T07:19:01;34.53;;;25.98;;
36061;SDS011;22123;52.412;20.970;2022-09-13T07:21:29;33.42;;;21.52;;
36061;SDS011;22123;52.412;20.970;2022-09-13T07:23:56;57.65;;;29.10;;
36061;SDS011;22123;52.412;20.970;2022-09-13T07:26:23;45.00;;;30.40;;
36061;SDS011;22123;52.412;20.970;2022-09-13T07:28:52;54.03;;;34.40;;
36061;SDS011;22123;52.412;20.970;2022-09-13T07:31:23;42.47;;;28.50;;
36061;SDS011;22123;52.412;20.970;2022-09-13T07:33:54;36.65;;;25.33;;
36061;SDS011;22123;52.412;20.970;2022-09-13T07:36:26;51.70;;;29.52;;
36061;SDS011;22123;52.412;20.970;2022-09-13T07:38:53;58.80;;;31.70;;
36061;SDS011;22123;52.412;20.970;2022-09-13T07:41:20;40.00;;;26.73;;
36061;SDS011;22123;52.412;20.970;2022-09-13T07:43:47;44.03;;;30.38;;
36061;SDS011;22123;52.412;20.970;2022-09-13T07:46:14;51.35;;;34.60;;
36061;SDS011;22123;52.412;20.970;2022-09-13T07:48:42;49.67;;;31.25;;
36061;SDS011;22123;52.412;20.970;2022-09-13T07:51:15;53.33;;;29.05;;
36061;SDS011;22123;52.412;20.970;2022-09-13T07:53:44;42.28;;;27.38;;
36061;SDS011;22123;52.412;20.970;2022-09-13T07:56:15;41.50;;;28.23;;
36061;SDS011;22123;52.412;20.970;2022-09-13T07:58:43;66.75;;;40.05;;
36061;SDS011;22123;52.412;20.970;2022-09-13T08:03:39;52.85;;;30.63;;
36061;SDS011;22123;52.412;20.970;2022-09-13T08:06:06;54.42;;;35.15;;
36061;SDS011;22123;52.412;20.970;2022-09-13T08:08:33;46.75;;;29.80;;
36061;SDS011;22123;52.412;20.970;2022-09-13T08:10:59;35.00;;;23.75;;
36061;SDS011;22123;52.412;20.970;2022-09-13T08:13:26;46.28;;;32.17;;
36061;SDS011;22123;52.412;20.970;2022-09-13T08:15:53;39.58;;;28.50;;
36061;SDS011;22123;52.412;20.970;2022-09-13T08:18:19;28.40;;;19.88;;
36061;SDS011;22123;52.412;20.970;2022-09-13T08:20:44;30.60;;;19.92;;
36061;SDS011;22123;52.412;20.970;2022-09-13T08:23:11;45.10;;;28.92;;
36061;SDS011;22123;52.412;20.970;2022-09-13T08:25:37;38.88;;;29.83;;
36061;SDS011;22123;52.412;20.970;2022-09-13T08:30:34;29.10;;;19.52;;
36061;SDS011;22123;52.412;20.970;2022-09-13T08:33:04;35.10;;;26.75;;
36061;SDS011;22123;52.412;20.970;2022-09-13T08:35:30;27.25;;;18.75;;
36061;SDS011;22123;52.412;20.970;2022-09-13T08:37:57;27.00;;;17.98;;
36061;SDS011;22123;52.412;20.970;2022-09-13T08:40:24;32.60;;;21.90;;
36061;SDS011;22123;52.412;20.970;2022-09-13T08:43:11;36.20;;;24.83;;
36061;SDS011;22123;52.412;20.970;2022-09-13T08:46:01;35.28;;;22.85;;
36061;SDS011;22123;52.412;20.970;2022-09-13T08:48:33;27.70;;;12.07;;
36061;SDS011;22123;52.412;20.970;2022-09-13T08:51:04;17.23;;;9.15;;
36061;SDS011;22123;52.412;20.970;2022-09-13T08:53:34;11.43;;;7.40;;
36061;SDS011;22123;52.412;20.970;2022-09-13T08:56:10;8.15;;;6.72;;
36061;SDS011;22123;52.412;20.970;2022-09-13T09:06:16;7.45;;;3.97;;
36061;SDS011;22123;52.412;20.970;2022-09-13T09:08:53;7.00;;;3.72;;
36061;SDS011;22123;52.412;20.970;2022-09-13T09:14:11;6.30;;;3.05;;
36061;SDS011;22123;52.412;20.970;2022-09-13T09:17:11;5.10;;;2.45;;
36061;SDS011;22123;52.412;20.970;2022-09-13T09:19:39;7.82;;;2.63;;
36061;SDS011;22123;52.412;20.970;2022-09-13T09:24:44;7.82;;;2.80;;
36061;SDS011;22123;52.412;20.970;2022-09-13T09:27:18;4.88;;;2.53;;
36061;SDS011;22123;52.412;20.970;2022-09-13T09:29:45;4.63;;;2.85;;
36061;SDS011;22123;52.412;20.970;2022-09-13T09:41:00;7.10;;;2.10;;
36061;SDS011;22123;52.412;20.970;2022-09-13T09:43:34;4.18;;;2.00;;
36061;SDS011;22123;52.412;20.970;2022-09-13T09:46:05;8.07;;;1.85;;
36061;SDS011;22123;52.412;20.970;2022-09-13T09:48:40;3.17;;;2.28;;
36061;SDS011;22123;52.412;20.970;2022-09-13T09:51:10;3.63;;;1.92;;
36061;SDS011;22123;52.412;20.970;2022-09-13T09:53:40;4.90;;;2.20;;
36061;SDS011;22123;52.412;20.970;2022-09-13T09:58:48;5.78;;;1.90;;
36061;SDS011;22123;52.412;20.970;2022-09-13T10:06:27;3.63;;;1.70;;
36061;SDS011;22123;52.412;20.970;2022-09-13T10:11:44;3.38;;;1.67;;
36061;SDS011;22123;52.412;20.970;2022-09-13T10:17:24;4.82;;;1.63;;
36061;SDS011;22123;52.412;20.970;2022-09-13T10:19:50;4.68;;;1.70;;
36061;SDS011;22123;52.412;20.970;2022-09-13T10:22:23;4.07;;;1.63;;
36061;SDS011;22123;52.412;20.970;2022-09-13T10:24:50;7.30;;;2.10;;
36061;SDS011;22123;52.412;20.970;2022-09-13T10:27:27;6.13;;;1.85;;
36061;SDS011;22123;52.412;20.970;2022-09-13T10:29:55;3.95;;;2.22;;
36061;SDS011;22123;52.412;20.970;2022-09-13T10:32:24;6.38;;;2.22;;
36061;SDS011;22123;52.412;20.970;2022-09-13T10:34:52;5.82;;;1.88;;
36061;SDS011;22123;52.412;20.970;2022-09-13T10:37:21;5.13;;;1.83;;
36061;SDS011;22123;52.412;20.970;2022-09-13T10:42:39;2.55;;;1.63;;
36061;SDS011;22123;52.412;20.970;2022-09-13T10:45:21;4.95;;;1.85;;
36061;SDS011;22123;52.412;20.970;2022-09-13T10:47:49;3.05;;;1.77;;
36061;SDS011;22123;52.412;20.970;2022-09-13T10:52:54;5.60;;;1.80;;
36061;SDS011;22123;52.412;20.970;2022-09-13T10:55:25;3.35;;;2.13;;
36061;SDS011;22123;52.412;20.970;2022-09-13T11:11:28;5.80;;;1.95;;
36061;SDS011;22123;52.412;20.970;2022-09-13T11:27:37;3.78;;;1.88;;
36061;SDS011;22123;52.412;20.970;2022-09-13T11:30:09;2.53;;;2.00;;
36061;SDS011;22123;52.412;20.970;2022-09-13T11:33:02;4.75;;;1.75;;
36061;SDS011;22123;52.412;20.970;2022-09-13T11:35:56;3.38;;;1.90;;
36061;SDS011;22123;52.412;20.970;2022-09-13T11:38:35;7.05;;;2.03;;
36061;SDS011;22123;52.412;20.970;2022-09-13T11:50:24;4.07;;;2.10;;
36061;SDS011;22123;52.412;20.970;2022-09-13T11:55:15;7.90;;;2.13;;
36061;SDS011;22123;52.412;20.970;2022-09-13T11:57:48;5.43;;;2.25;;
36061;SDS011;22123;52.412;20.970;2022-09-13T12:05:26;4.93;;;2.00;;
36061;SDS011;22123;52.412;20.970;2022-09-13T12:13:17;2.75;;;1.95;;
36061;SDS011;22123;52.412;20.970;2022-09-13T12:15:47;3.58;;;1.90;;
36061;SDS011;22123;52.412;20.970;2022-09-13T12:20:54;2.67;;;1.67;;
36061;SDS011;22123;52.412;20.970;2022-09-13T12:23:27;3.83;;;2.22;;
36061;SDS011;22123;52.412;20.970;2022-09-13T12:26:00;4.90;;;2.30;;
36061;SDS011;22123;52.412;20.970;2022-09-13T12:28:36;4.22;;;2.10;;
36061;SDS011;22123;52.412;20.970;2022-09-13T12:31:16;3.83;;;2.13;;
36061;SDS011;22123;52.412;20.970;2022-09-13T12:33:45;2.33;;;1.73;;
36061;SDS011;22123;52.412;20.970;2022-09-13T12:44:40;5.10;;;2.50;;
36061;SDS011;22123;52.412;20.970;2022-09-13T12:50:22;3.40;;;2.00;;
36061;SDS011;22123;52.412;20.970;2022-09-13T12:58:47;3.95;;;2.15;;
36061;SDS011;22123;52.412;20.970;2022-09-13T13:01:33;3.85;;;2.58;;
36061;SDS011;22123;52.412;20.970;2022-09-13T13:06:49;7.22;;;2.38;;
36061;SDS011;22123;52.412;20.970;2022-09-13T13:10:02;8.38;;;2.70;;
36061;SDS011;22123;52.412;20.970;2022-09-13T13:14:58;3.85;;;2.45;;
36061;SDS011;22123;52.412;20.970;2022-09-13T13:23:33;11.90;;;3.75;;
36061;SDS011;22123;52.412;20.970;2022-09-13T13:26:11;6.43;;;2.50;;
36061;SDS011;22123;52.412;20.970;2022-09-13T13:31:36;4.20;;;2.60;;
36061;SDS011;22123;52.412;20.970;2022-09-13T13:37:34;4.93;;;2.58;;
36061;SDS011;22123;52.412;20.970;2022-09-13T13:42:44;4.13;;;2.47;;
36061;SDS011;22123;52.412;20.970;2022-09-13T13:50:11;8.95;;;3.83;;
36061;SDS011;22123;52.412;20.970;2022-09-13T13:52:49;5.28;;;2.30;;
36061;SDS011;22123;52.412;20.970;2022-09-13T14:01:15;5.43;;;2.45;;
36061;SDS011;22123;52.412;20.970;2022-09-13T14:03:57;4.85;;;2.67;;
36061;SDS011;22123;52.412;20.970;2022-09-13T14:19:20;32.47;;;13.35;;
36061;SDS011;22123;52.412;20.970;2022-09-13T14:22:35;26.17;;;12.27;;
36061;SDS011;22123;52.412;20.970;2022-09-13T14:24:44;15.60;;;8.13;;
36061;SDS011;22123;52.412;20.970;2022-09-13T14:27:19;11.32;;;5.35;;
36061;SDS011;22123;52.412;20.970;2022-09-13T14:29:46;10.65;;;4.30;;
36061;SDS011;22123;52.412;20.970;2022-09-13T14:32:19;10.13;;;5.10;;
36061;SDS011;22123;52.412;20.970;2022-09-13T14:34:50;5.60;;;4.05;;
36061;SDS011;22123;52.412;20.970;2022-09-13T14:37:31;14.48;;;5.88;;
36061;SDS011;22123;52.412;20.970;2022-09-13T14:42:44;8.13;;;3.58;;
36061;SDS011;22123;52.412;20.970;2022-09-13T14:47:48;11.73;;;3.20;;
36061;SDS011;22123;52.412;20.970;2022-09-13T14:50:17;6.43;;;3.72;;
36061;SDS011;22123;52.412;20.970;2022-09-13T14:52:51;8.40;;;3.83;;
36061;SDS011;22123;52.412;20.970;2022-09-13T14:55:38;9.85;;;4.45;;
36061;SDS011;22123;52.412;20.970;2022-09-13T14:58:12;11.18;;;4.65;;
36061;SDS011;22123;52.412;20.970;2022-09-13T15:01:17;10.57;;;4.15;;
36061;SDS011;22123;52.412;20.970;2022-09-13T15:03:43;6.63;;;3.65;;
36061;SDS011;22123;52.412;20.970;2022-09-13T15:06:25;8.07;;;3.78;;
36061;SDS011;22123;52.412;20.970;2022-09-13T15:08:55;8.23;;;4.32;;
36061;SDS011;22123;52.412;20.970;2022-09-13T15:11:29;6.30;;;4.13;;
36061;SDS011;22123;52.412;20.970;2022-09-13T15:14:21;6.05;;;3.78;;
36061;SDS011;22123;52.412;20.970;2022-09-13T15:16:52;11.13;;;3.97;;
36061;SDS011;22123;52.412;20.970;2022-09-13T15:21:49;5.95;;;3.65;;
36061;SDS011;22123;52.412;20.970;2022-09-13T15:24:23;3.88;;;3.03;;
36061;SDS011;22123;52.412;20.970;2022-09-13T15:27:15;5.70;;;3.00;;
36061;SDS011;22123;52.412;20.970;2022-09-13T15:29:47;5.55;;;3.40;;
36061;SDS011;22123;52.412;20.970;2022-09-13T15:34:54;7.45;;;3.65;;
36061;SDS011;22123;52.412;20.970;2022-09-13T15:37:27;11.13;;;3.70;;
36061;SDS011;22123;52.412;20.970;2022-09-13T15:42:43;6.05;;;3.50;;
36061;SDS011;22123;52.412;20.970;2022-09-13T15:45:09;6.43;;;3.55;;
36061;SDS011;22123;52.412;20.970;2022-09-13T15:47:35;9.15;;;4.20;;
36061;SDS011;22123;52.412;20.970;2022-09-13T15:50:01;6.28;;;4.00;;
36061;SDS011;22123;52.412;20.970;2022-09-13T15:52:26;8.25;;;5.53;;
36061;SDS011;22123;52.412;20.970;2022-09-13T15:54:52;14.23;;;5.45;;
36061;SDS011;22123;52.412;20.970;2022-09-13T15:59:54;12.82;;;5.80;;
36061;SDS011;22123;52.412;20.970;2022-09-13T16:02:21;9.32;;;4.78;;
36061;SDS011;22123;52.412;20.970;2022-09-13T16:04:52;7.45;;;5.18;;
36061;SDS011;22123;52.412;20.970;2022-09-13T16:07:19;7.78;;;4.22;;
36061;SDS011;22123;52.412;20.970;2022-09-13T16:09:45;9.57;;;3.95;;
36061;SDS011;22123;52.412;20.970;2022-09-13T16:12:13;9.25;;;4.60;;
36061;SDS011;22123;52.412;20.970;2022-09-13T16:14:39;11.25;;;4.93;;
36061;SDS011;22123;52.412;20.970;2022-09-13T16:17:05;8.93;;;5.00;;
36061;SDS011;22123;52.412;20.970;2022-09-13T16:19:35;8.32;;;4.45;;
36061;SDS011;22123;52.412;20.970;2022-09-13T16:22:01;15.38;;;5.07;;
36061;SDS011;22123;52.412;20.970;2022-09-13T16:24:29;8.15;;;4.43;;
36061;SDS011;22123;52.412;20.970;2022-09-13T16:26:56;9.80;;;5.80;;
36061;SDS011;22123;52.412;20.970;2022-09-13T16:29:24;9.25;;;4.72;;
36061;SDS011;22123;52.412;20.970;2022-09-13T16:31:49;7.20;;;4.68;;
36061;SDS011;22123;52.412;20.970;2022-09-13T16:34:14;6.22;;;4.10;;
36061;SDS011;22123;52.412;20.970;2022-09-13T16:36:40;6.78;;;4.97;;
36061;SDS011;22123;52.412;20.970;2022-09-13T16:39:05;13.57;;;5.60;;
36061;SDS011;22123;52.412;20.970;2022-09-13T16:41:31;12.60;;;5.47;;
36061;SDS011;22123;52.412;20.970;2022-09-13T16:43:56;10.70;;;6.10;;
36061;SDS011;22123;52.412;20.970;2022-09-13T16:46:21;10.88;;;5.13;;
36061;SDS011;22123;52.412;20.970;2022-09-13T16:48:53;9.65;;;5.68;;
36061;SDS011;22123;52.412;20.970;2022-09-13T16:51:20;15.27;;;5.50;;
36061;SDS011;22123;52.412;20.970;2022-09-13T16:53:47;16.20;;;6.18;;
36061;SDS011;22123;52.412;20.970;2022-09-13T16:56:15;10.15;;;5.65;;
36061;SDS011;22123;52.412;20.970;2022-09-13T16:58:43;11.95;;;6.55;;
36061;SDS011;22123;52.412;20.970;2022-09-13T17:01:13;10.45;;;6.05;;
36061;SDS011;22123;52.412;20.970;2022-09-13T17:03:40;17.00;;;7.30;;
36061;SDS011;22123;52.412;20.970;2022-09-13T17:06:07;10.63;;;6.30;;
36061;SDS011;22123;52.412;20.970;2022-09-13T17:08:34;13.55;;;7.20;;
36061;SDS011;22123;52.412;20.970;2022-09-13T17:11:09;9.38;;;6.85;;
36061;SDS011;22123;52.412;20.970;2022-09-13T17:13:37;10.57;;;7.20;;
36061;SDS011;22123;52.412;20.970;2022-09-13T17:16:04;13.23;;;7.40;;
36061;SDS011;22123;52.412;20.970;2022-09-13T17:18:31;12.13;;;6.95;;
36061;SDS011;22123;52.412;20.970;2022-09-13T17:20:57;11.07;;;6.97;;
36061;SDS011;22123;52.412;20.970;2022-09-13T17:23:23;10.50;;;7.80;;
36061;SDS011;22123;52.412;20.970;2022-09-13T17:25:49;11.32;;;8.05;;
36061;SDS011;22123;52.412;20.970;2022-09-13T17:28:16;11.68;;;8.77;;
36061;SDS011;22123;52.412;20.970;2022-09-13T17:30:43;12.00;;;7.80;;
36061;SDS011;22123;52.412;20.970;2022-09-13T17:33:10;12.98;;;8.88;;
36061;SDS011;22123;52.412;20.970;2022-09-13T17:35:36;18.77;;;10.27;;
36061;SDS011;22123;52.412;20.970;2022-09-13T17:38:02;15.13;;;9.90;;
36061;SDS011;22123;52.412;20.970;2022-09-13T17:40:28;12.43;;;9.75;;
36061;SDS011;22123;52.412;20.970;2022-09-13T17:42:54;10.23;;;8.43;;
36061;SDS011;22123;52.412;20.970;2022-09-13T17:45:21;15.02;;;10.95;;
36061;SDS011;22123;52.412;20.970;2022-09-13T17:47:47;12.70;;;9.20;;
36061;SDS011;22123;52.412;20.970;2022-09-13T17:50:13;13.13;;;9.63;;
36061;SDS011;22123;52.412;20.970;2022-09-13T17:52:38;17.80;;;10.93;;
36061;SDS011;22123;52.412;20.970;2022-09-13T17:55:04;16.95;;;10.40;;
36061;SDS011;22123;52.412;20.970;2022-09-13T17:57:31;13.32;;;9.90;;
36061;SDS011;22123;52.412;20.970;2022-09-13T17:59:56;11.75;;;9.50;;
36061;SDS011;22123;52.412;20.970;2022-09-13T18:02:22;20.83;;;9.77;;
36061;SDS011;22123;52.412;20.970;2022-09-13T18:04:48;13.68;;;10.23;;
36061;SDS011;22123;52.412;20.970;2022-09-13T18:07:15;13.90;;;8.80;;
36061;SDS011;22123;52.412;20.970;2022-09-13T18:09:40;11.27;;;8.20;;
36061;SDS011;22123;52.412;20.970;2022-09-13T18:12:07;15.43;;;8.80;;
36061;SDS011;22123;52.412;20.970;2022-09-13T18:14:32;22.90;;;10.32;;
36061;SDS011;22123;52.412;20.970;2022-09-13T18:16:58;10.75;;;8.68;;